createdAt,value
2018-07-28T00:02:00.790Z,63.18
2018-07-28T00:05:08.566Z,61.87
2018-07-28T00:08:15.339Z,62.73
2018-07-28T00:11:21.018Z,62.94
2018-07-28T00:14:26.583Z,62.65
2018-07-28T00:17:32.175Z,63.60
2018-07-28T00:20:38.177Z,63.44
2018-07-28T00:23:45.242Z,63.01
2018-07-28T00:26:52.131Z,63.37
2018-07-28T00:29:59.106Z,63.50
2018-07-28T00:33:05.086Z,64.04
2018-07-28T00:36:10.997Z,64.39
2018-07-28T00:39:17.890Z,63.93
2018-07-28T00:42:23.065Z,63.57
2018-07-28T00:45:28.215Z,63.68
2018-07-28T00:48:35.307Z,64.20
2018-07-28T00:51:41.326Z,63.85
2018-07-28T00:54:46.222Z,64.68
2018-07-28T00:57:51.997Z,64.17
2018-07-28T01:00:57.788Z,63.95
2018-07-28T01:04:03.852Z,64.67
2018-07-28T01:07:09.843Z,64.58
2018-07-28T01:10:16.645Z,64.57
2018-07-28T01:13:22.248Z,64.75
2018-07-28T01:16:27.654Z,64.88
2018-07-28T01:19:33.836Z,64.41
2018-07-28T01:22:40.352Z,65.66
2018-07-28T01:25:45.246Z,65.46
2018-07-28T01:28:59.592Z,65.61
2018-07-28T01:32:04.471Z,65.94
2018-07-28T01:35:10.211Z,66.12
2018-07-28T01:38:16.375Z,66.39
2018-07-28T01:41:21.688Z,66.09
2018-07-28T01:44:28.562Z,66.36
2018-07-28T01:47:34.291Z,66.30
2018-07-28T01:50:40.400Z,66.04
2018-07-28T01:53:47.720Z,65.72
2018-07-28T01:56:54.828Z,65.85
2018-07-28T02:00:00.339Z,66.19
2018-07-28T02:03:05.230Z,66.31
2018-07-28T02:06:10.171Z,66.75
2018-07-28T02:09:17.257Z,67.07
2018-07-28T02:12:24.468Z,66.08
2018-07-28T02:15:30.495Z,67.26
2018-07-28T02:18:36.909Z,67.34
2018-07-28T02:21:42.464Z,67.34
2018-07-28T02:24:48.403Z,66.73
2018-07-28T02:27:54.007Z,67.56
2018-07-28T02:30:59.187Z,67.62
2018-07-28T02:34:05.106Z,67.73
2018-07-28T02:37:11.403Z,68.12
2018-07-28T02:40:18.350Z,68.03
2018-07-28T02:43:39.726Z,67.68
2018-07-28T02:46:44.972Z,67.27
2018-07-28T02:49:52.129Z,68.09
2018-07-28T02:52:57.368Z,67.84
2018-07-28T02:56:02.800Z,68.70
2018-07-28T02:59:09.880Z,68.38
2018-07-28T03:02:15.711Z,68.17
2018-07-28T03:05:22.946Z,67.79
2018-07-28T03:08:28.471Z,68.80
2018-07-28T03:11:35.203Z,67.82
2018-07-28T03:14:40.962Z,68.58
2018-07-28T03:17:46.124Z,68.37
2018-07-28T03:20:51.895Z,69.13
2018-07-28T03:23:58.556Z,69.06
2018-07-28T03:27:05.583Z,68.66
2018-07-28T03:30:12.108Z,69.12
2018-07-28T03:33:18.407Z,68.48
2018-07-28T03:36:23.266Z,68.62
2018-07-28T03:39:28.575Z,68.34
2018-07-28T03:42:35.172Z,68.70
2018-07-28T03:45:40.705Z,69.37
2018-07-28T03:48:46.863Z,68.98
2018-07-28T03:51:53.695Z,69.30
2018-07-28T03:55:01.748Z,69.59
2018-07-28T03:58:07.008Z,69.40
2018-07-28T04:01:12.852Z,69.94
2018-07-28T04:04:18.052Z,70.14
2018-07-28T04:07:23.391Z,70.07
2018-07-28T04:10:29.546Z,69.20
2018-07-28T04:13:36.616Z,68.54
2018-07-28T04:16:42.478Z,68.53
2018-07-28T04:19:48.537Z,69.44
2018-07-28T04:22:55.558Z,68.60
2018-07-28T04:26:01.635Z,69.81
2018-07-28T04:29:07.329Z,70.50
2018-07-28T04:32:12.964Z,70.68
2018-07-28T04:35:18.219Z,69.76
2018-07-28T04:38:24.271Z,70.41
2018-07-28T04:41:29.515Z,69.74
2018-07-28T04:44:35.683Z,69.44
2018-07-28T04:47:41.563Z,70.40
2018-07-28T04:50:47.119Z,69.08
2018-07-28T04:53:52.907Z,70.57
2018-07-28T04:56:59.934Z,69.71
2018-07-28T05:00:06.284Z,70.17
2018-07-28T05:03:11.463Z,69.08
2018-07-28T05:06:17.521Z,68.75
2018-07-28T05:09:23.890Z,69.04
2018-07-28T05:12:29.042Z,68.63
2018-07-28T05:15:33.927Z,68.35
2018-07-28T05:18:39.953Z,69.43
2018-07-28T05:21:45.854Z,69.51
2018-07-28T05:24:52.116Z,69.37
2018-07-28T05:27:58.132Z,68.81
2018-07-28T05:31:04.175Z,68.72
2018-07-28T05:34:10.044Z,69.21
2018-07-28T05:37:16.148Z,69.16
2018-07-28T05:40:22.269Z,70.31
2018-07-28T05:43:27.134Z,69.45
2018-07-28T05:46:32.876Z,69.39
2018-07-28T05:49:39.259Z,69.01
2018-07-28T05:52:45.203Z,69.92
2018-07-28T05:55:52.017Z,69.53
2018-07-28T05:58:58.219Z,69.35
2018-07-28T06:02:03.394Z,69.67
2018-07-28T06:05:09.223Z,70.97
2018-07-28T06:08:14.388Z,70.25
2018-07-28T06:11:19.907Z,69.61
2018-07-28T06:14:25.755Z,70.01
2018-07-28T06:17:31.004Z,69.48
2018-07-28T06:20:36.137Z,70.08
2018-07-28T06:23:41.012Z,71.39
2018-07-28T06:26:46.847Z,70.30
2018-07-28T06:29:51.715Z,70.30
2018-07-28T06:32:57.322Z,70.00
2018-07-28T06:36:05.012Z,70.74
2018-07-28T06:39:12.351Z,70.79
2018-07-28T06:42:17.236Z,71.78
2018-07-28T06:45:23.116Z,70.13
2018-07-28T06:48:28.634Z,70.83
2018-07-28T06:51:34.531Z,71.26
2018-07-28T06:54:39.435Z,70.39
2018-07-28T06:57:44.819Z,70.14
2018-07-28T07:00:49.891Z,70.13
2018-07-28T07:03:55.032Z,69.93
2018-07-28T07:07:00.807Z,70.92
2018-07-28T07:10:06.305Z,69.47
2018-07-28T07:13:12.176Z,70.28
2018-07-28T07:16:17.703Z,70.85
2018-07-28T07:19:22.604Z,70.32
2018-07-28T07:22:28.765Z,70.70
2018-07-28T07:25:33.635Z,69.86
2018-07-28T07:28:39.456Z,70.38
2018-07-28T07:31:44.675Z,69.65
2018-07-28T07:34:50.562Z,70.13
2018-07-28T07:37:55.444Z,70.02
2018-07-28T07:41:00.341Z,69.91
2018-07-28T07:44:05.699Z,70.29
2018-07-28T07:47:10.627Z,69.87
2018-07-28T07:50:16.689Z,69.13
2018-07-28T07:53:22.579Z,69.46
2018-07-28T07:56:28.103Z,69.03
2018-07-28T07:59:33.907Z,69.56
2018-07-28T08:02:38.763Z,69.87
2018-07-28T08:05:44.367Z,68.54
2018-07-28T08:08:51.211Z,68.86
2018-07-28T08:11:56.920Z,68.98
2018-07-28T08:15:02.843Z,68.51
2018-07-28T08:18:08.897Z,68.34
2018-07-28T08:21:14.620Z,67.99
2018-07-28T08:24:19.955Z,68.73
2018-07-28T08:27:25.182Z,67.54
2018-07-28T08:30:30.066Z,67.26
2018-07-28T08:33:37.195Z,66.95
2018-07-28T08:36:42.100Z,66.46
2018-07-28T08:39:47.385Z,66.09
2018-07-28T08:42:52.372Z,66.84
2018-07-28T08:45:57.733Z,65.55
2018-07-28T08:49:02.650Z,65.26
2018-07-28T08:52:07.796Z,64.59
2018-07-28T08:55:13.756Z,64.58
2018-07-28T08:58:19.668Z,64.94
2018-07-28T09:01:26.310Z,64.45
2018-07-28T09:04:32.102Z,64.30
2018-07-28T09:07:37.919Z,63.95
2018-07-28T09:10:43.530Z,64.67
2018-07-28T09:13:49.403Z,63.60
2018-07-28T09:16:54.986Z,63.25
2018-07-28T09:20:00.963Z,64.21
2018-07-28T09:23:06.423Z,64.04
2018-07-28T09:26:12.862Z,63.87
2018-07-28T09:29:18.605Z,62.36
2018-07-28T09:32:24.431Z,63.49
2018-07-28T09:35:29.671Z,63.06
2018-07-28T09:38:34.647Z,63.26
2018-07-28T09:41:40.375Z,62.23
2018-07-28T09:44:45.975Z,61.69
2018-07-28T09:47:51.788Z,62.45
2018-07-28T09:50:57.560Z,61.50
2018-07-28T09:54:02.459Z,60.87
2018-07-28T09:57:08.409Z,60.22
2018-07-28T10:00:18.813Z,60.79
2018-07-28T10:03:25.193Z,59.35
2018-07-28T10:06:30.264Z,59.43
2018-07-28T10:09:36.150Z,58.27
2018-07-28T10:12:41.995Z,58.33
2018-07-28T10:15:47.693Z,58.29
2018-07-28T10:18:53.536Z,57.71
2018-07-28T10:21:58.418Z,57.62
2018-07-28T10:25:03.824Z,58.17
2018-07-28T10:28:10.967Z,58.83
2018-07-28T10:31:16.839Z,58.20
2018-07-28T10:34:22.780Z,58.10
2018-07-28T10:37:29.279Z,58.06
2018-07-28T10:40:34.983Z,57.27
2018-07-28T10:43:39.846Z,56.95
2018-07-28T10:46:45.651Z,56.67
2018-07-28T10:49:52.712Z,56.81
2018-07-28T10:52:58.192Z,57.48
2018-07-28T10:56:03.103Z,55.32
2018-07-28T10:59:08.971Z,54.63
2018-07-28T11:02:15.478Z,54.80
2018-07-28T11:05:20.382Z,55.09
2018-07-28T11:08:25.771Z,53.54
2018-07-28T11:11:30.682Z,54.44
2018-07-28T11:14:35.659Z,55.73
2018-07-28T11:17:41.103Z,54.73
2018-07-28T11:20:46.257Z,54.99
2018-07-28T11:23:56.947Z,54.64
2018-07-28T11:27:02.282Z,53.90
2018-07-28T11:30:09.722Z,55.18
2018-07-28T11:33:26.676Z,54.58
2018-07-28T11:36:43.684Z,54.25
2018-07-28T11:40:00.327Z,54.72
2018-07-28T11:43:17.087Z,55.00
2018-07-28T11:46:22.963Z,53.44
2018-07-28T11:49:28.751Z,53.56
2018-07-28T11:52:33.651Z,53.98
2018-07-28T11:55:40.310Z,53.76
2018-07-28T11:58:47.208Z,53.25
2018-07-28T12:01:52.875Z,54.11
2018-07-28T12:04:58.951Z,53.65
2018-07-28T12:08:05.024Z,52.63
2018-07-28T12:11:10.700Z,52.53
2018-07-28T12:14:15.572Z,52.15
2018-07-28T12:17:20.782Z,52.05
2018-07-28T12:20:26.604Z,52.40
2018-07-28T12:23:32.349Z,51.97
2018-07-28T12:26:37.256Z,51.47
2018-07-28T12:29:42.479Z,50.84
2018-07-28T12:32:48.263Z,51.74
2018-07-28T12:35:53.943Z,52.02
2018-07-28T12:38:59.673Z,50.04
2018-07-28T12:42:04.539Z,51.53
2018-07-28T12:45:09.795Z,52.04
2018-07-28T12:48:15.707Z,51.78
2018-07-28T12:51:36.303Z,49.73
2018-07-28T12:54:41.703Z,50.44
2018-07-28T12:57:47.631Z,49.44
2018-07-28T13:00:53.707Z,50.29
2018-07-28T13:03:59.597Z,49.97
2018-07-28T13:07:05.615Z,48.25
2018-07-28T13:10:11.240Z,50.36
2018-07-28T13:13:17.203Z,50.90
2018-07-28T13:16:22.068Z,49.06
2018-07-28T13:19:27.026Z,49.17
2018-07-28T13:22:32.229Z,48.80
2018-07-28T13:25:37.128Z,48.22
2018-07-28T13:28:42.935Z,48.74
2018-07-28T13:31:48.861Z,47.72
2018-07-28T13:34:54.325Z,47.60
2018-07-28T13:37:59.625Z,47.98
2018-07-28T13:41:05.499Z,46.91
2018-07-28T13:44:10.375Z,46.73
2018-07-28T13:47:15.262Z,46.13
2018-07-28T13:50:21.126Z,46.27
2018-07-28T13:53:26.065Z,46.97
2018-07-28T13:56:32.314Z,46.31
2018-07-28T13:59:39.688Z,46.40
2018-07-28T14:02:45.191Z,43.19
2018-07-28T14:05:50.108Z,42.74
2018-07-28T14:08:56.009Z,43.62
2018-07-28T14:12:01.498Z,44.10
2018-07-28T14:15:08.668Z,45.34
2018-07-28T14:18:15.874Z,45.09
2018-07-28T14:21:20.975Z,45.65
2018-07-28T14:24:26.879Z,47.79
2018-07-28T14:27:32.644Z,49.31
2018-07-28T14:30:38.574Z,52.19
2018-07-28T14:33:44.383Z,53.26
2018-07-28T14:36:51.475Z,53.90
2018-07-28T14:39:57.207Z,54.43
2018-07-28T14:43:02.360Z,55.08
2018-07-28T14:46:08.147Z,56.67
2018-07-28T14:49:13.067Z,55.15
2018-07-28T14:52:17.971Z,56.42
2018-07-28T14:55:22.935Z,58.50
2018-07-28T14:58:27.832Z,58.07
2018-07-28T15:01:32.691Z,59.53
2018-07-28T15:04:38.466Z,59.89
2018-07-28T15:07:43.963Z,60.49
2018-07-28T15:10:49.782Z,60.96
2018-07-28T15:13:54.718Z,60.50
2018-07-28T15:17:00.819Z,61.67
2018-07-28T15:20:06.871Z,62.28
2018-07-28T15:23:13.056Z,61.19
2018-07-28T15:26:18.274Z,62.81
2018-07-28T15:29:25.451Z,62.94
2018-07-28T15:32:31.180Z,62.88
2018-07-28T15:35:38.215Z,62.75
2018-07-28T15:38:43.934Z,63.29
2018-07-28T15:41:50.958Z,64.27
2018-07-28T15:44:56.629Z,63.64
2018-07-28T15:48:02.074Z,64.64
2018-07-28T15:51:08.128Z,65.34
2018-07-28T15:54:13.919Z,65.79
2018-07-28T15:57:19.124Z,65.20
2018-07-28T16:00:26.288Z,64.84
2018-07-28T16:03:32.316Z,66.08
2018-07-28T16:06:38.255Z,65.58
2018-07-28T16:09:43.980Z,65.15
2018-07-28T16:12:50.341Z,66.70
2018-07-28T16:15:55.912Z,65.84
2018-07-28T16:19:00.773Z,66.49
2018-07-28T16:22:06.676Z,66.31
2018-07-28T16:25:12.209Z,66.98
2018-07-28T16:28:17.062Z,67.53
2018-07-28T16:31:22.652Z,66.95
2018-07-28T16:34:28.195Z,67.91
2018-07-28T16:37:33.771Z,67.34
2018-07-28T16:40:38.656Z,67.97
2018-07-28T16:43:43.492Z,70.30
2018-07-28T16:46:48.375Z,70.03
2018-07-28T16:49:53.819Z,68.38
2018-07-28T16:52:59.681Z,69.71
2018-07-28T16:56:05.756Z,69.36
2018-07-28T16:59:11.704Z,69.42
2018-07-28T17:02:17.403Z,68.01
2018-07-28T17:05:22.272Z,70.19
2018-07-28T17:08:28.195Z,70.63
2018-07-28T17:11:34.982Z,69.90
2018-07-28T17:14:40.410Z,69.66
2018-07-28T17:17:46.169Z,69.31
2018-07-28T17:20:51.883Z,69.24
2018-07-28T17:23:57.379Z,69.49
2018-07-28T17:27:02.303Z,68.97
2018-07-28T17:30:07.511Z,69.91
2018-07-28T17:33:13.212Z,71.04
2018-07-28T17:36:18.059Z,69.92
2018-07-28T17:39:23.368Z,69.56
2018-07-28T17:42:28.208Z,69.63
2018-07-28T17:45:33.957Z,69.86
2018-07-28T17:48:39.178Z,69.47
2018-07-28T17:51:44.971Z,70.20
2018-07-28T17:54:50.414Z,69.81
2018-07-28T17:57:56.072Z,70.47
2018-07-28T18:01:02.884Z,70.90
2018-07-28T18:04:09.822Z,70.53
2018-07-28T18:07:15.295Z,69.21
2018-07-28T18:10:22.112Z,70.80
2018-07-28T18:13:28.298Z,70.10
2018-07-28T18:16:34.216Z,70.70
2018-07-28T18:19:40.226Z,70.38
2018-07-28T18:22:46.200Z,70.12
2018-07-28T18:25:52.000Z,70.69
2018-07-28T18:28:58.683Z,71.37
2018-07-28T18:32:04.641Z,70.67
2018-07-28T18:35:10.971Z,70.33
2018-07-28T18:38:17.321Z,70.21
2018-07-28T18:41:23.120Z,71.62
2018-07-28T18:44:28.751Z,70.78
2018-07-28T18:47:33.665Z,71.89
2018-07-28T18:50:38.550Z,72.33
2018-07-28T18:53:43.447Z,71.37
2018-07-28T18:56:48.401Z,70.75
2018-07-28T18:59:53.452Z,71.66
2018-07-28T19:02:58.368Z,71.58
2018-07-28T19:06:03.312Z,70.78
2018-07-28T19:09:14.589Z,71.52
2018-07-28T19:12:26.118Z,70.63
2018-07-28T19:15:31.459Z,71.56
2018-07-28T19:18:42.514Z,71.48
2018-07-28T19:21:48.192Z,71.64
2018-07-28T19:24:55.381Z,71.17
2018-07-28T19:28:05.637Z,71.85
2018-07-28T19:31:10.971Z,72.48
2018-07-28T19:34:15.884Z,71.62
2018-07-28T19:37:24.008Z,72.34
2018-07-28T19:40:29.724Z,72.16
2018-07-28T19:43:35.921Z,71.50
2018-07-28T19:46:41.072Z,71.14
2018-07-28T19:49:46.824Z,71.12
2018-07-28T19:52:53.918Z,71.72
2018-07-28T19:56:00.099Z,71.57
2018-07-28T19:59:06.067Z,71.54
2018-07-28T20:02:11.890Z,71.18
2018-07-28T20:05:17.991Z,72.39
2018-07-28T20:08:23.702Z,72.92
2018-07-28T20:11:28.607Z,72.21
2018-07-28T20:14:34.396Z,74.37
2018-07-28T20:17:39.783Z,74.00
2018-07-28T20:20:44.662Z,72.95
2018-07-28T20:23:49.487Z,72.87
2018-07-28T20:26:55.063Z,74.78
2018-07-28T20:30:00.288Z,73.64
2018-07-28T20:33:06.259Z,74.50
2018-07-28T20:36:11.955Z,73.94
2018-07-28T20:39:17.854Z,72.78
2018-07-28T20:42:23.066Z,72.23
2018-07-28T20:45:28.109Z,72.00
2018-07-28T20:48:33.347Z,72.56
2018-07-28T20:51:38.951Z,72.95
2018-07-28T20:54:43.799Z,72.91
2018-07-28T20:57:49.588Z,71.98
2018-07-28T21:00:54.467Z,71.65
2018-07-28T21:03:59.335Z,71.76
2018-07-28T21:07:04.828Z,72.86
2018-07-28T21:10:10.103Z,72.90
2018-07-28T21:13:15.675Z,72.53
2018-07-28T21:16:20.596Z,73.77
2018-07-28T21:19:26.435Z,74.14
2018-07-28T21:22:31.347Z,74.58
2018-07-28T21:25:36.216Z,73.61
2018-07-28T21:28:42.010Z,74.87
2018-07-28T21:31:48.079Z,76.28
2018-07-28T21:34:54.907Z,75.07
2018-07-28T21:38:00.690Z,74.11
2018-07-28T21:41:06.883Z,73.80
2018-07-28T21:44:12.571Z,74.31
2018-07-28T21:47:18.551Z,74.65
2018-07-28T21:50:23.626Z,73.29
2018-07-28T21:53:29.387Z,73.17
2018-07-28T21:56:35.249Z,74.07
2018-07-28T21:59:40.545Z,74.00
2018-07-28T22:02:45.975Z,72.94
2018-07-28T22:05:51.344Z,73.99
2018-07-28T22:08:56.209Z,74.38
2018-07-28T22:12:02.128Z,74.05
2018-07-28T22:15:07.812Z,74.25
2018-07-28T22:18:12.667Z,74.69
2018-07-28T22:21:18.214Z,73.33
2018-07-28T22:24:23.702Z,74.01
2018-07-28T22:27:28.551Z,73.77
2018-07-28T22:30:33.651Z,73.56
2018-07-28T22:33:42.276Z,73.99
2018-07-28T22:36:47.806Z,73.26
2018-07-28T22:39:52.669Z,74.44
2018-07-28T22:42:57.868Z,73.97
2018-07-28T22:46:03.626Z,74.26
2018-07-28T22:49:08.491Z,73.67
2018-07-28T22:52:13.792Z,73.73
2018-07-28T22:55:18.671Z,73.86
2018-07-28T22:58:24.443Z,74.24
2018-07-28T23:01:31.399Z,76.41
2018-07-28T23:04:37.132Z,74.85
2018-07-28T23:07:42.991Z,75.78
2018-07-28T23:10:47.867Z,75.81
2018-07-28T23:13:54.222Z,74.77
2018-07-28T23:16:59.106Z,74.24
2018-07-28T23:20:05.702Z,73.59
2018-07-28T23:23:11.210Z,74.70
2018-07-28T23:26:16.096Z,74.37
2018-07-28T23:29:21.975Z,74.18
2018-07-28T23:32:26.830Z,73.77
2018-07-28T23:35:32.272Z,75.12
2018-07-28T23:38:37.487Z,74.46
2018-07-28T23:41:43.554Z,75.58
2018-07-28T23:44:49.156Z,74.86
2018-07-28T23:47:56.344Z,74.44
2018-07-28T23:51:02.401Z,74.64
2018-07-28T23:54:08.413Z,73.76
2018-07-28T23:57:14.173Z,73.84
